Time;durP1;ratioP1;P1;durP2;ratioP2;P2;SDS_P1;SDS_P2;PMS_P1;PMS_P2;Temp;Humidity;BMP_temperature;BMP_pressure;BME280_temperature;BME280_humidity;BME280_pressure;Samples;Min_cycle;Max_cycle;Signal;HPM_P1;HPM_P2
2022/02/02 00:00:20;;;;;;;34.03;4.47;;;7.50;99.90;;;;;;6242128;22;20070;-80
2022/02/02 00:02:54;;;;;;;36.95;5.07;;;7.20;99.90;;;;;;6268249;22;20031;-81
2022/02/02 00:05:35;;;;;;;33.58;4.45;;;7.00;99.90;;;;;;6267437;22;20416;-81
2022/02/02 00:08:07;;;;;;;32.38;3.80;;;6.50;99.90;;;;;;6266665;22;20111;-81
2022/02/02 00:10:43;;;;;;;23.00;3.80;;;7.50;99.90;;;;;;6243943;22;20015;-80
2022/02/02 00:13:26;;;;;;;20.60;3.88;;;6.80;99.90;;;;;;6240598;22;20020;-80
2022/02/02 00:18:53;;;;;;;36.60;5.18;;;7.10;99.90;;;;;;6178823;23;20017;-82
2022/02/02 00:21:41;;;;;;;44.40;5.97;;;6.70;99.90;;;;;;6169309;23;20048;-81
2022/02/02 00:24:21;;;;;;;44.50;5.43;;;6.60;99.90;;;;;;6152241;23;20090;-80
2022/02/02 00:26:51;;;;;;;33.75;4.20;;;6.70;99.90;;;;;;6158171;23;20013;-80
2022/02/02 00:29:20;;;;;;;38.35;5.40;;;6.60;99.90;;;;;;6157997;23;20012;-80
2022/02/02 00:32:02;;;;;;;39.75;5.30;;;6.60;99.90;;;;;;6181603;23;20008;-80
2022/02/02 00:34:29;;;;;;;47.75;5.78;;;6.90;99.90;;;;;;6182534;23;20091;-81
2022/02/02 00:36:57;;;;;;;38.72;4.57;;;6.60;99.90;;;;;;6183207;23;20020;-81
2022/02/02 00:39:29;;;;;;;29.83;3.97;;;7.00;99.90;;;;;;6183109;23;20032;-79
2022/02/02 00:41:56;;;;;;;39.85;4.57;;;6.60;99.90;;;;;;6154084;23;20035;-81
2022/02/02 00:44:27;;;;;;;34.08;4.53;;;6.70;99.90;;;;;;6182830;23;20023;-80
2022/02/02 00:46:54;;;;;;;31.63;4.07;;;6.80;99.90;;;;;;6159476;23;20087;-79
2022/02/02 00:49:20;;;;;;;34.78;4.72;;;6.80;99.90;;;;;;6185242;23;20071;-80
2022/02/02 00:51:47;;;;;;;30.13;4.75;;;6.90;99.90;;;;;;6184707;23;20098;-79
2022/02/02 00:54:21;;;;;;;29.35;4.00;;;6.80;99.90;;;;;;6160756;23;20017;-80
2022/02/02 00:56:49;;;;;;;30.58;4.88;;;6.90;99.90;;;;;;6238061;23;20016;-80
2022/02/02 00:59:15;;;;;;;25.75;3.38;;;7.10;99.90;;;;;;6243073;23;20016;-80
2022/02/02 01:01:41;;;;;;;28.00;4.15;;;7.10;99.90;;;;;;6217143;23;20036;-81
2022/02/02 01:04:10;;;;;;;43.58;5.57;;;8.00;99.90;;;;;;6242230;23;20067;-80
2022/02/02 01:06:40;;;;;;;45.53;5.13;;;7.80;99.90;;;;;;6192013;23;20023;-81
2022/02/02 01:09:24;;;;;;;32.67;4.25;;;7.70;99.90;;;;;;6215894;23;20008;-80
2022/02/02 01:20:05;;;;;;;32.78;3.67;;;6.90;99.90;;;;;;6216018;23;20034;-81
2022/02/02 01:27:59;;;;;;;20.77;2.55;;;6.60;99.90;;;;;;6239364;23;20016;-81
2022/02/02 01:30:25;;;;;;;24.83;3.55;;;7.10;99.90;;;;;;6214276;23;20015;-81
2022/02/02 01:32:51;;;;;;;21.85;3.33;;;6.40;99.90;;;;;;6216345;23;20012;-80
2022/02/02 01:35:18;;;;;;;23.98;2.80;;;6.40;99.90;;;;;;6240759;23;20285;-81
2022/02/02 01:37:48;;;;;;;32.72;3.85;;;6.40;99.90;;;;;;6240825;23;20054;-81
2022/02/02 01:40:32;;;;;;;18.23;3.17;;;6.40;99.90;;;;;;6191757;23;20055;-80
2022/02/02 01:45:55;;;;;;;33.08;4.30;;;6.40;99.90;;;;;;6214822;23;20095;-80
2022/02/02 01:48:37;;;;;;;27.13;3.08;;;6.40;99.90;;;;;;6216221;23;20012;-80
2022/02/02 01:56:08;;;;;;;;;;;6.50;99.90;;;;;;6218021;23;20107;-81
2022/02/02 02:01:05;;;;;;;22.23;3.20;;;7.40;99.90;;;;;;6241038;23;20020;-80
2022/02/02 02:03:51;;;;;;;21.92;3.17;;;6.60;99.90;;;;;;6215006;23;20031;-79
2022/02/02 02:06:18;;;;;;;24.63;3.95;;;7.10;99.90;;;;;;6188341;23;20050;-79
2022/02/02 02:08:44;;;;;;;24.30;3.60;;;6.70;99.90;;;;;;6214305;23;20050;-79
2022/02/02 02:11:20;;;;;;;24.42;4.00;;;6.70;99.90;;;;;;6240423;23;20451;-79
2022/02/02 02:16:36;;;;;;;37.05;4.68;;;6.70;99.90;;;;;;6241621;23;20115;-80
2022/02/02 02:19:02;;;;;;;39.65;4.97;;;7.10;99.90;;;;;;6242134;23;20432;-80
2022/02/02 02:21:28;;;;;;;38.80;4.55;;;6.70;99.90;;;;;;6225030;22;20101;-81
2022/02/02 02:23:54;;;;;;;31.13;4.85;;;6.70;99.90;;;;;;6244339;22;20510;-80
2022/02/02 02:26:25;;;;;;;36.88;6.05;;;6.70;99.90;;;;;;6271068;22;20012;-80
2022/02/02 02:55:58;;;;;;;31.90;4.82;;;6.70;99.90;;;;;;6123355;23;20109;-82
2022/02/02 03:02:44;;;;;;;37.67;5.28;;;6.60;99.90;;;;;;6016273;23;20019;-81
2022/02/02 03:30:19;;;;;;;;;;;;;;;;;;;;;
2022/02/02 04:07:54;;;;;;;50.67;5.45;;;6.20;99.90;;;;;;6032045;23;20086;-80
2022/02/02 04:11:49;;;;;;;;;;;;;;;;;;;;;
2022/02/02 05:21:15;;;;;;;33.05;4.53;;;5.70;99.90;;;;;;6155739;23;20032;-80
2022/02/02 05:52:02;;;;;;;;;;;;;;;;;;;;;
2022/02/02 05:58:31;;;;;;;33.90;5.15;;;6.40;99.90;;;;;;5840447;24;20030;-81
2022/02/02 06:05:09;;;;;;;38.83;5.43;;;6.40;99.90;;;;;;4410326;27;18624795;-80
2022/02/02 06:07:43;;;;;;;42.65;5.05;;;6.40;99.90;;;;;;5057486;28;20307;-82
2022/02/02 06:10:35;;;;;;;35.30;5.43;;;6.40;99.90;;;;;;5052367;28;20045;-81
2022/02/02 06:13:04;;;;;;;33.10;4.97;;;6.40;99.90;;;;;;5049308;28;20484;-81
2022/02/02 06:15:31;;;;;;;38.90;5.13;;;6.50;99.90;;;;;;5030552;28;20041;-81
2022/02/02 06:17:58;;;;;;;43.53;5.63;;;7.70;99.90;;;;;;5038082;28;20134;-81
2022/02/02 06:20:24;;;;;;;44.40;6.60;;;7.60;99.90;;;;;;5054319;28;20111;-81
2022/02/02 06:23:12;;;;;;;46.80;5.85;;;7.00;99.90;;;;;;5052183;28;20124;-81
2022/02/02 06:25:44;;;;;;;45.28;5.38;;;6.50;99.90;;;;;;5044953;28;20033;-81
2022/02/02 06:28:25;;;;;;;38.65;5.85;;;6.50;99.90;;;;;;5049175;28;20120;-82
2022/02/02 06:32:37;;;;;;;;;;;;;;;;;;;;;
2022/02/02 06:46:32;;;;;;;44.30;5.70;;;6.30;99.90;;;;;;4740600;29;20080;-81
2022/02/02 06:48:59;;;;;;;42.45;5.03;;;7.50;99.90;;;;;;4732372;30;20140;-79
2022/02/02 06:51:48;;;;;;;39.13;4.75;;;6.40;99.90;;;;;;4742279;30;20060;-79
2022/02/02 06:54:23;;;;;;;41.38;5.88;;;6.40;99.90;;;;;;4743800;30;20052;-78
2022/02/02 06:57:33;;;;;;;40.85;4.18;;;6.40;99.90;;;;;;4741918;30;20060;-81
2022/02/02 07:00:42;;;;;;;46.90;6.45;;;6.40;99.90;;;;;;4713804;30;20049;-81
2022/02/02 07:03:20;;;;;;;44.45;5.70;;;6.40;99.90;;;;;;4691905;30;20495;-82
2022/02/02 07:06:09;;;;;;;37.55;5.28;;;6.40;99.90;;;;;;4673423;30;20483;-81
2022/02/02 07:39:11;;;;;;;44.83;5.88;;;6.50;99.90;;;;;;6019844;22;4167296;-82
2022/02/02 07:41:44;;;;;;;43.08;6.20;;;6.40;99.90;;;;;;6140529;23;20049;-82
2022/02/02 07:44:22;;;;;;;45.70;5.65;;;7.00;99.90;;;;;;6138444;23;20076;-80
2022/02/02 07:46:54;;;;;;;54.08;6.28;;;6.50;99.90;;;;;;6139451;23;20024;-80
2022/02/02 07:49:29;;;;;;;42.75;5.53;;;6.40;99.90;;;;;;6139872;23;20095;-81
2022/02/02 07:51:56;;;;;;;40.20;5.20;;;6.80;99.90;;;;;;6163060;23;20299;-81
2022/02/02 07:54:42;;;;;;;50.67;5.88;;;6.50;99.90;;;;;;6139095;23;20048;-81
2022/02/02 07:57:26;;;;;;;29.52;4.60;;;6.50;99.90;;;;;;6136975;23;20013;-83
2022/02/02 08:00:08;;;;;;;33.63;4.85;;;6.50;99.90;;;;;;6188437;23;20009;-83
2022/02/02 08:03:04;;;;;;;30.15;4.60;;;6.60;99.90;;;;;;6126807;23;20035;-83
2022/02/02 08:05:53;;;;;;;33.88;4.57;;;5.90;99.90;;;;;;6076230;23;20161;-83
2022/02/02 08:08:55;;;;;;;31.10;4.47;;;7.60;99.90;;;;;;5880238;24;20017;-85
2022/02/02 08:58:28;;;;;;;44.55;6.38;;;6.60;99.90;;;;;;5949581;24;20468;-86
2022/02/02 09:01:08;;;;;;;50.95;5.78;;;6.70;99.90;;;;;;5979431;23;20012;-87
2022/02/02 09:06:50;;;;;;;44.92;5.80;;;6.10;99.90;;;;;;5923921;23;20027;-81
2022/02/02 09:09:19;;;;;;;36.67;5.32;;;6.90;99.90;;;;;;6029676;23;20449;-82
2022/02/02 09:23:59;;;;;;;46.55;5.32;;;7.20;99.90;;;;;;6002995;23;20195;-85
2022/02/02 09:32:33;;;;;;;28.58;4.40;;;7.20;99.90;;;;;;5995334;23;20027;-83
2022/02/02 11:00:03;;;;;;;34.55;4.55;;;8.20;99.90;;;;;;6186326;23;20098;-89
2022/02/02 12:58:05;;;;;;;20.60;2.85;;;9.40;99.90;;;;;;6063880;23;20050;-80
2022/02/02 13:03:04;;;;;;;17.20;3.17;;;9.10;99.90;;;;;;6064141;23;20495;-81
2022/02/02 13:05:31;;;;;;;23.58;3.25;;;9.10;99.90;;;;;;6061180;23;20110;-81
2022/02/02 13:08:00;;;;;;;20.65;2.90;;;9.10;99.90;;;;;;6036093;23;20400;-79
2022/02/02 13:10:35;;;;;;;19.45;2.97;;;9.20;99.90;;;;;;6036516;23;20055;-85
2022/02/02 13:13:10;;;;;;;18.63;2.65;;;9.10;99.90;;;;;;6050033;23;20033;-84
2022/02/02 13:15:54;;;;;;;23.00;3.13;;;9.10;99.90;;;;;;6150329;23;20085;-84
2022/02/02 13:29:24;;;;;;;18.58;2.67;;;9.40;99.90;;;;;;6009876;23;20109;-83
2022/02/02 13:51:31;;;;;;;15.07;2.50;;;9.00;99.90;;;;;;5980444;23;20460;-83
2022/02/02 13:54:34;;;;;;;;;;;9.00;99.90;;;;;;5979768;23;20023;-83
2022/02/02 13:57:13;;;;;;;19.48;3.25;;;9.00;99.90;;;;;;5956965;23;19914;-83
2022/02/02 14:31:26;;;;;;;23.63;3.53;;;9.10;99.90;;;;;;6096298;23;20339;-83
2022/02/02 14:33:54;;;;;;;19.60;3.33;;;9.20;99.90;;;;;;6096936;23;20049;-82
2022/02/02 14:36:25;;;;;;;21.15;3.20;;;10.10;99.90;;;;;;6148069;23;20100;-81
2022/02/02 14:39:00;;;;;;;20.90;3.38;;;9.90;99.90;;;;;;6123673;23;20017;-80
2022/02/02 14:41:44;;;;;;;25.73;3.30;;;9.50;99.90;;;;;;6123013;23;20373;-81
2022/02/02 14:47:04;;;;;;;25.10;3.92;;;10.00;99.90;;;;;;6152277;23;20445;-82
2022/02/02 14:49:30;;;;;;;23.92;3.40;;;9.60;99.90;;;;;;6123347;23;20021;-84
2022/02/02 14:52:09;;;;;;;26.77;3.53;;;9.70;99.90;;;;;;6098722;23;20021;-82
2022/02/02 15:25:04;;;;;;;25.88;2.63;;;8.70;99.90;;;;;;6147263;23;20040;-85
2022/02/02 15:30:44;;;;;;;18.42;2.80;;;8.70;99.90;;;;;;6125735;23;20017;-83
2022/02/02 15:33:33;;;;;;;18.08;2.85;;;9.60;99.90;;;;;;6100156;23;20020;-87
2022/02/02 15:38:48;;;;;;;17.70;2.88;;;8.20;99.90;;;;;;6128459;23;20032;-84
2022/02/02 15:41:31;;;;;;;25.35;3.20;;;8.10;99.90;;;;;;6102143;23;20103;-82
2022/02/02 15:45:01;;;;;;;17.17;3.03;;;8.00;99.90;;;;;;6105497;23;20025;-80
2022/02/02 16:03:16;;;;;;;15.40;2.45;;;7.70;99.90;;;;;;6007654;23;20565;-86
2022/02/02 16:06:02;;;;;;;25.70;3.67;;;7.20;99.90;;;;;;6008607;23;20078;-85
2022/02/02 16:09:18;;;;;;;20.52;3.15;;;7.30;99.90;;;;;;5987929;23;20046;-84
2022/02/02 16:11:46;;;;;;;25.27;2.88;;;7.10;99.90;;;;;;6008315;23;20020;-84
2022/02/02 16:14:27;;;;;;;19.88;3.20;;;7.00;99.90;;;;;;5986532;23;20031;-85
2022/02/02 16:33:46;;;;;;;14.82;2.42;;;6.50;99.90;;;;;;5927497;24;20088;-82
2022/02/02 16:36:12;;;;;;;18.95;2.67;;;7.40;99.90;;;;;;5922244;24;20513;-79
2022/02/02 16:39:24;;;;;;;19.83;2.88;;;7.40;99.90;;;;;;5973224;23;20020;-81
2022/02/02 16:44:25;;;;;;;29.48;2.83;;;6.70;99.90;;;;;;6007887;23;20104;-81
2022/02/02 16:46:52;;;;;;;21.45;2.88;;;6.10;99.90;;;;;;5983579;23;20357;-80
2022/02/02 16:49:19;;;;;;;18.50;3.33;;;6.00;99.90;;;;;;5980182;23;20047;-82
2022/02/02 16:51:45;;;;;;;22.25;2.63;;;6.10;99.90;;;;;;6005499;23;20574;-81
2022/02/02 16:54:37;;;;;;;19.88;2.55;;;6.20;99.90;;;;;;6005360;23;20111;-79
2022/02/02 16:57:19;;;;;;;21.17;3.15;;;6.00;99.90;;;;;;5981458;23;20171;-79
2022/02/02 17:25:41;;;;;;;26.15;3.00;;;5.40;99.90;;;;;;6142537;23;20097;-78
2022/02/02 17:30:22;;;;;;;20.13;3.70;;;5.30;99.90;;;;;;6152153;23;20025;-84
2022/02/02 17:33:39;;;;;;;20.98;3.45;;;5.20;99.90;;;;;;6127888;23;20017;-82
2022/02/02 17:36:06;;;;;;;21.20;3.08;;;5.20;99.90;;;;;;6136554;23;20025;-84
2022/02/02 18:21:08;;;;;;;35.55;4.95;;;5.00;99.90;;;;;;6009881;23;20270;-82
2022/02/02 18:33:53;;;;;;;30.35;7.63;;;4.90;99.90;;;;;;6067849;23;20105;-80
2022/02/02 18:52:29;;;;;;;36.80;8.30;;;5.20;99.90;;;;;;6150533;23;20402;-86
2022/02/02 18:57:48;;;;;;;38.72;8.82;;;4.60;99.90;;;;;;6151054;23;20017;-87
2022/02/02 19:40:37;;;;;;;36.17;7.93;;;5.00;99.90;;;;;;6151526;23;20160;-85
2022/02/02 20:05:16;;;;;;;28.00;5.50;;;4.80;99.90;;;;;;6039040;23;20840;-88
2022/02/02 20:07:52;;;;;;;28.77;5.72;;;5.60;99.90;;;;;;6038072;23;20022;-86
2022/02/02 20:12:47;;;;;;;40.55;5.70;;;5.10;99.90;;;;;;6063068;23;20029;-86
2022/02/02 20:15:14;;;;;;;30.92;5.63;;;5.60;99.90;;;;;;6039740;23;20023;-85
2022/02/02 20:17:41;;;;;;;30.05;6.05;;;4.90;99.90;;;;;;6044231;23;20094;-83
2022/02/02 20:20:14;;;;;;;26.38;5.57;;;4.80;99.90;;;;;;6022176;23;20022;-82
2022/02/02 20:22:40;;;;;;;35.33;5.93;;;4.90;99.90;;;;;;6063305;23;20019;-85
2022/02/02 20:25:08;;;;;;;33.42;5.75;;;4.90;99.90;;;;;;6016191;23;20018;-81
2022/02/02 20:27:35;;;;;;;41.03;6.40;;;4.90;99.90;;;;;;6039768;23;20023;-84
2022/02/02 20:30:05;;;;;;;36.58;5.25;;;4.90;99.90;;;;;;6017369;23;20014;-86
2022/02/02 20:32:31;;;;;;;32.00;5.53;;;4.90;99.90;;;;;;6023614;23;20022;-86
2022/02/02 20:34:57;;;;;;;27.77;5.93;;;4.90;99.90;;;;;;6153157;23;20168;-87
2022/02/02 20:37:23;;;;;;;29.70;4.88;;;4.90;99.90;;;;;;6152346;23;20025;-83
2022/02/02 20:40:03;;;;;;;27.58;4.97;;;5.60;99.90;;;;;;6128574;23;20009;-84
2022/02/02 20:42:38;;;;;;;28.88;5.38;;;4.90;99.90;;;;;;6152480;23;20565;-83
2022/02/02 20:45:28;;;;;;;31.27;5.77;;;5.40;99.90;;;;;;6128167;23;20029;-84
2022/02/02 21:14:37;;;;;;;45.20;7.57;;;5.80;99.90;;;;;;6151459;23;20488;-86
2022/02/02 21:17:06;;;;;;;40.53;8.07;;;6.20;99.90;;;;;;6152115;23;20093;-82
2022/02/02 21:19:49;;;;;;;41.80;7.68;;;5.50;99.90;;;;;;6126280;23;20024;-85
2022/02/02 21:22:17;;;;;;;38.38;7.57;;;5.60;99.90;;;;;;6151100;23;20013;-86
2022/02/02 21:24:52;;;;;;;39.33;8.70;;;5.70;99.90;;;;;;6127608;23;20032;-90
2022/02/02 21:27:28;;;;;;;36.60;9.15;;;6.30;99.90;;;;;;6151648;23;20394;-82
2022/02/02 21:29:54;;;;;;;38.90;9.23;;;6.50;99.90;;;;;;6127903;23;20010;-85
2022/02/02 21:32:23;;;;;;;43.25;10.38;;;5.80;99.90;;;;;;6151973;23;20546;-79
2022/02/02 21:34:51;;;;;;;49.17;11.40;;;5.80;99.90;;;;;;6102532;23;20449;-83
2022/02/02 21:37:19;;;;;;;54.67;12.55;;;5.80;99.90;;;;;;6125845;23;20225;-82
2022/02/02 21:39:54;;;;;;;53.00;12.57;;;5.90;99.90;;;;;;6152594;23;20014;-87
2022/02/02 21:42:20;;;;;;;52.60;12.43;;;6.60;99.90;;;;;;6127715;23;20021;-84
2022/02/02 21:44:46;;;;;;;54.03;12.70;;;6.60;99.90;;;;;;6158439;23;20009;-82
2022/02/02 21:47:12;;;;;;;61.22;13.45;;;6.10;99.90;;;;;;6136436;23;20041;-80
2022/02/02 21:49:39;;;;;;;58.22;14.18;;;6.00;99.90;;;;;;6127815;23;20029;-82
2022/02/02 21:52:08;;;;;;;45.53;13.30;;;6.00;99.90;;;;;;6152923;23;20069;-83
2022/02/02 21:54:36;;;;;;;61.85;14.38;;;6.10;99.90;;;;;;6131168;23;20032;-80
2022/02/02 21:57:02;;;;;;;50.53;14.18;;;6.00;99.90;;;;;;6159915;23;20017;-83
2022/02/02 21:59:29;;;;;;;58.22;14.63;;;6.10;99.90;;;;;;6133645;23;20402;-90
2022/02/02 22:01:54;;;;;;;51.28;14.20;;;6.10;99.90;;;;;;6125622;23;20052;-82
2022/02/02 22:04:20;;;;;;;55.90;14.77;;;6.10;99.90;;;;;;6126813;23;20319;-82
2022/02/02 22:06:46;;;;;;;60.88;15.52;;;6.20;99.90;;;;;;6125156;23;20018;-81
2022/02/02 22:09:12;;;;;;;56.92;16.52;;;6.20;99.90;;;;;;6150367;23;20017;-80
2022/02/02 22:11:37;;;;;;;62.13;17.25;;;6.20;99.90;;;;;;6101504;23;20022;-81
2022/02/02 22:14:12;;;;;;;59.42;15.90;;;6.20;99.90;;;;;;6126245;23;20021;-86
2022/02/02 22:16:39;;;;;;;;;;;6.30;99.90;;;;;;6152567;23;20072;-83
2022/02/02 22:19:06;;;;;;;61.78;16.75;;;6.20;99.90;;;;;;6151809;23;19916;-84
2022/02/02 22:21:31;;;;;;;50.53;16.42;;;6.20;99.90;;;;;;6151696;23;20013;-86
2022/02/02 22:23:59;;;;;;;57.20;18.15;;;6.20;99.90;;;;;;6151732;23;20014;-85
2022/02/02 22:26:26;;;;;;;56.30;16.92;;;6.50;99.90;;;;;;6151424;23;20025;-86
2022/02/02 22:28:51;;;;;;;70.28;18.80;;;6.80;99.90;;;;;;6151481;23;20041;-91
2022/02/02 22:31:17;;;;;;;63.05;18.40;;;6.40;99.90;;;;;;6152724;23;20026;-88
2022/02/02 22:33:43;;;;;;;60.47;17.48;;;6.30;99.90;;;;;;6127256;23;20029;-88
2022/02/02 22:36:09;;;;;;;55.05;17.67;;;6.30;99.90;;;;;;6152454;23;20017;-85
2022/02/02 22:38:35;;;;;;;57.08;18.38;;;6.50;99.90;;;;;;6150626;23;20009;-83
2022/02/02 22:41:01;;;;;;;60.15;18.58;;;6.40;99.90;;;;;;6150917;23;20476;-83
2022/02/02 22:43:31;;;;;;;60.13;19.25;;;6.40;99.90;;;;;;6125646;23;20009;-82
2022/02/02 22:45:57;;;;;;;63.42;19.42;;;6.40;99.90;;;;;;6149204;23;20018;-84
2022/02/02 22:48:25;;;;;;;62.05;19.13;;;6.50;99.90;;;;;;6124231;23;20017;-84
2022/02/02 22:50:51;;;;;;;57.80;18.20;;;6.50;99.90;;;;;;6126257;23;20017;-83
2022/02/02 22:53:21;;;;;;;51.60;18.08;;;6.50;99.90;;;;;;6126474;23;20021;-80
2022/02/02 22:55:46;;;;;;;55.22;19.02;;;6.60;99.90;;;;;;6126893;23;20100;-80
2022/02/02 22:58:12;;;;;;;64.22;20.00;;;6.60;99.90;;;;;;6148832;23;20021;-82
2022/02/02 23:00:40;;;;;;;49.92;18.45;;;7.30;99.90;;;;;;6125413;23;20669;-81
2022/02/02 23:03:14;;;;;;;48.00;17.05;;;6.60;99.90;;;;;;6125521;23;20434;-83
2022/02/02 23:05:43;;;;;;;51.67;18.25;;;6.80;99.90;;;;;;6126141;23;20382;-87
2022/02/02 23:08:11;;;;;;;44.63;17.52;;;6.70;99.90;;;;;;6122326;23;20017;-81
2022/02/02 23:10:38;;;;;;;45.63;16.88;;;7.00;99.90;;;;;;6125343;23;20024;-83
2022/02/02 23:13:04;;;;;;;42.45;15.70;;;7.10;99.90;;;;;;6125272;23;20018;-83
2022/02/02 23:15:38;;;;;;;39.63;16.40;;;7.60;99.90;;;;;;6150177;23;20013;-82
2022/02/02 23:18:13;;;;;;;34.53;15.13;;;6.80;99.90;;;;;;6124974;23;20025;-85
2022/02/02 23:20:41;;;;;;;34.00;14.90;;;6.90;99.90;;;;;;6149732;23;20013;-81
2022/02/02 23:23:07;;;;;;;33.67;14.82;;;7.50;99.90;;;;;;6147796;23;20339;-85
2022/02/02 23:25:35;;;;;;;35.10;15.77;;;7.00;99.90;;;;;;6150130;23;20029;-87
2022/02/02 23:28:03;;;;;;;34.80;15.07;;;7.60;99.90;;;;;;6124056;23;20314;-85
2022/02/02 23:30:29;;;;;;;33.60;15.00;;;7.20;99.90;;;;;;6151045;23;20014;-83
2022/02/02 23:32:58;;;;;;;39.20;16.10;;;7.10;99.90;;;;;;6150910;23;20319;-83
2022/02/02 23:35:25;;;;;;;34.05;15.35;;;7.40;99.90;;;;;;6126684;23;20024;-81
2022/02/02 23:37:52;;;;;;;34.65;15.27;;;7.20;99.90;;;;;;6125314;23;20075;-82
2022/02/02 23:44:00;;;;;;;42.95;16.55;;;7.20;99.90;;;;;;6153370;23;20013;-87
2022/02/02 23:46:30;;;;;;;38.85;16.48;;;7.50;99.90;;;;;;6151250;23;20022;-86
2022/02/02 23:49:05;;;;;;;43.47;16.17;;;7.90;99.90;;;;;;6152086;23;20105;-87
2022/02/02 23:51:35;;;;;;;43.60;17.42;;;7.20;99.90;;;;;;6128014;23;20021;-85
2022/02/02 23:54:05;;;;;;;47.35;17.80;;;7.40;99.90;;;;;;6128419;23;20073;-86
2022/02/02 23:56:54;;;;;;;51.05;18.95;;;7.50;99.90;;;;;;6152902;23;20045;-83
